Impacts TAF Board INFO
FOR SITUATIONAL AWARENESS. NOT TO BE USED FOR FLIGHT PLANNING PURPOSES.
IDs:

KMCO - Orlando Intl, FL, US

Issued at 2340 UTC 12 Dec 2017
Updated at 2348 UTC 12 Dec 2017
Potential Impact None Slight Moderate High
Time2253Z 13/00Z 13/01Z 13/02Z 13/03Z 13/04Z 13/05Z 13/06Z 13/07Z 13/08Z 13/09Z 13/10Z 13/11Z 13/12Z>>
Type OBS PRVL PRVL PRVL PRVL PRVL PRVL PRVL PRVL PRVL PRVL PRVL PRVL PRVL
VIS 10 >6 >6 >6 >6 >6 >6 >6 >6 >6 >6 >6 >6 >6
CIG -- -- -- -- -- -- -- -- -- -- -- -- -- --
Cover CLR SKC SKC SKC SKC SKC SKC SKC SKC SKC SKC SKC SKC SKC
FltCat VFR VFR VFR VFR VFR VFR VFR VFR VFR VFR VFR VFR VFR VFR
WX -- -- -- -- -- -- -- -- -- -- -- -- -- --
WDir 260 280 280 310 310 310 310 310 310 310 310 310 310 310
WSpd 12 10 10 8 8 8 8 8 8 8 8 8 8 8
WGst 22 -- -- -- -- -- -- -- -- -- -- -- -- --

Raw TAF
KMCO 122340Z 1300/1406 28010KT P6SM SKC
  FM130200 31008KT P6SM SKC
  FM131300 33006KT P6SM SKC
  FM131700 29007KT P6SM SKC
  FM140000 22004KT P6SM SKC


Raw METAR
KMCO 122253Z 26012G22KT 10SM CLR 19/09 A2990 RMK AO2 SLP123 T01940094
KMCO 122153Z 26011KT 10SM FEW055 21/09 A2989 RMK AO2 PK WND 27027/2057 SLP122 T02060089
KMCO 122053Z 27015G25KT 10SM FEW055 21/08 A2989 RMK AO2 PK WND 26028/2031 SLP121 T02110078 56016

METAR Board
Radar Display
Forecast Discussion

FOR SITUATIONAL AWARENESS. NOT TO BE USED FOR FLIGHT PLANNING PURPOSES.